Date,TemperatureHighF,TemperatureAvgF,TemperatureLowF,DewpointHighF,DewpointAvgF,DewpointLowF,HumidityHigh,HumidityAvg,HumidityLow,PressureMaxIn,PressureMinIn,WindSpeedMaxMPH,WindSpeedAvgMPH,GustSpeedMaxMPH,PrecipitationSumIn
2013-8-1,83.1,71.6,65.1,68.1,63.2,59.5,89,76,54,29.97,29.81,12,0,13,0.00
2013-8-2,85.1,71.1,59.7,63.5,59.2,52.6,97,70,35,29.96,29.88,14,1,14,0.00
2013-8-3,74.1,67.2,61.4,67.2,61.5,56.1,97,82,70,29.97,29.92,8,0,8,0.16
2013-8-4,77.8,67.2,57.6,62.3,57.8,48.8,99,76,37,30.06,29.95,14,1,14,0.01
2013-8-5,80.4,65.3,51.8,57.7,53.8,49.0,97,71,34,30.13,29.95,7,0,8,0.00
2013-8-6,82.6,69.2,59.7,65.7,60.8,56.7,97,77,46,30.03,29.95,8,0,8,0.25
2013-8-7,88.3,71.0,63.7,71.2,65.8,62.0,97,85,51,30.01,29.91,24,1,24,0.35
2013-8-8,86.0,71.6,66.8,73.3,68.9,66.2,98,92,60,30.00,29.90,20,0,27,0.85
2013-8-9,81.4,74.4,70.1,73.6,70.3,67.5,99,88,65,29.97,29.87,12,0,12,0.07
2013-8-10,84.5,73.7,67.4,69.8,67.4,59.8,98,83,48,30.07,29.96,6,0,6,0.02
2013-8-11,87.2,74.2,66.1,71.6,66.8,63.6,97,80,48,30.09,29.96,6,0,6,0.00
2013-8-12,87.6,75.1,64.8,69.6,66.1,61.8,98,77,43,30.03,29.87,8,0,8,0.00
2013-8-13,84.9,72.2,65.3,68.9,65.4,57.6,98,81,47,29.87,29.73,14,1,14,0.56
2013-8-14,67.9,58.5,51.3,58.8,51.0,46.1,92,77,62,30.03,29.85,12,1,12,0.00
2013-8-15,77.1,66.3,48.1,56.7,52.5,47.3,97,64,39,30.23,30.07,6,0,6,0.00
2013-8-16,81.6,64.1,50.6,58.8,53.6,49.5,97,73,38,30.18,30.09,7,0,10,0.00
2013-8-17,78.4,63.8,51.8,60.9,55.6,50.2,98,77,45,30.28,30.17,9,0,10,0.00
2013-8-18,68.3,63.4,59.5,61.9,60.2,58.2,98,90,73,30.26,30.15,8,0,8,0.28
2013-8-19,83.9,68.6,61.3,69.8,64.0,59.9,98,86,55,30.17,30.02,6,0,6,0.04
2013-8-20,84.7,71.4,61.1,66.7,63.1,56.4,98,78,43,30.18,30.08,6,0,7,0.00
2013-8-21,87.6,70.5,62.2,73.9,65.5,60.8,98,86,55,30.20,30.06,9,0,11,0.05
2013-8-22,87.0,73.6,65.3,68.8,65.4,62.3,98,78,49,30.08,29.94,8,0,8,0.00
2013-8-23,73.9,66.1,60.6,66.2,63.5,59.2,98,92,67,30.15,29.94,13,0,14,1.50
2013-8-24,81.6,66.1,59.1,63.1,59.3,55.9,98,82,43,30.33,30.14,6,0,7,0.00
2013-8-25,85.5,66.5,53.8,62.9,57.4,52.7,98,77,37,30.41,30.23,5,0,5,0.01
2013-8-26,87.0,70.0,56.2,64.8,59.9,54.8,97,74,41,30.27,30.02,10,0,10,0.00
2013-8-27,81.8,72.4,65.1,70.3,66.2,60.5,91,81,63,30.03,29.91,11,0,11,0.01
2013-8-28,79.5,71.5,67.9,72.4,69.0,66.1,98,92,76,29.94,29.78,7,0,7,0.69
2013-8-29,84.9,74.5,67.6,70.9,68.4,65.5,98,83,54,30.01,29.84,8,1,8,0.00
2013-8-30,90.4,74.1,63.8,71.6,66.6,63.2,98,80,43,30.03,29.83,10,0,10,0.00
2013-8-31,86.6,75.6,66.9,71.8,67.5,63.2,98,78,48,29.86,29.76,9,1,11,0.00